createdAt,value
2023-10-18T00:00:45.754Z,42.60
2023-10-18T00:03:12.847Z,36.00
2023-10-18T00:05:43.317Z,39.20
2023-10-18T00:08:11.035Z,43.20
2023-10-18T00:10:38.029Z,53.40
2023-10-18T00:13:04.919Z,39.80
2023-10-18T00:15:32.775Z,35.20
2023-10-18T00:17:59.710Z,38.60
2023-10-18T00:20:27.341Z,39.20
2023-10-18T00:22:55.848Z,50.00
2023-10-18T00:25:23.243Z,47.80
2023-10-18T00:27:50.875Z,42.60
2023-10-18T00:30:21.288Z,55.00
2023-10-18T00:32:48.554Z,35.80
2023-10-18T00:35:23.308Z,41.20
2023-10-18T00:37:56.780Z,42.80
2023-10-18T00:40:50.655Z,36.40
2023-10-18T00:43:21.683Z,39.60
2023-10-18T00:45:52.021Z,46.80
2023-10-18T00:48:28.607Z,39.80
2023-10-18T00:50:58.820Z,39.80
2023-10-18T00:53:32.312Z,42.40
2023-10-18T00:56:01.277Z,37.00
2023-10-18T00:58:33.197Z,46.40
2023-10-18T01:01:10.371Z,40.00
2023-10-18T01:03:52.840Z,49.20
2023-10-18T01:06:23.701Z,48.40
2023-10-18T01:08:51.780Z,41.60
2023-10-18T01:11:29.599Z,52.00
2023-10-18T01:13:57.357Z,37.00
2023-10-18T01:16:25.168Z,40.60
2023-10-18T01:18:57.276Z,41.20
2023-10-18T01:21:25.023Z,39.80
2023-10-18T01:23:54.850Z,39.80
2023-10-18T01:26:26.781Z,33.00
2023-10-18T01:28:55.685Z,40.80
2023-10-18T01:31:23.837Z,47.80
2023-10-18T01:33:52.757Z,39.00
2023-10-18T01:36:22.718Z,46.40
2023-10-18T01:38:54.279Z,42.40
2023-10-18T01:41:31.585Z,40.60
2023-10-18T01:44:11.737Z,44.40
2023-10-18T01:46:46.693Z,40.00
2023-10-18T01:49:22.718Z,38.60
2023-10-18T01:51:53.678Z,41.80
2023-10-18T01:54:21.772Z,36.00
2023-10-18T01:56:48.547Z,48.00
2023-10-18T01:59:19.081Z,49.40
2023-10-18T02:01:55.268Z,36.60
2023-10-18T02:04:36.385Z,37.00
2023-10-18T02:07:19.419Z,38.20
2023-10-18T02:09:51.591Z,46.20
2023-10-18T02:12:22.995Z,34.00
2023-10-18T02:14:51.530Z,30.40
2023-10-18T02:17:23.300Z,34.80
2023-10-18T02:19:50.706Z,39.60
2023-10-18T02:22:17.858Z,44.80
2023-10-18T02:24:45.014Z,38.00
2023-10-18T02:27:17.563Z,42.60
2023-10-18T02:29:46.420Z,40.00
2023-10-18T02:32:34.367Z,39.00
2023-10-18T02:35:06.031Z,47.60
2023-10-18T02:37:33.216Z,52.60
2023-10-18T02:40:09.549Z,39.00
2023-10-18T02:42:38.181Z,39.80
2023-10-18T02:45:15.361Z,48.80
2023-10-18T02:47:42.914Z,36.80
2023-10-18T02:50:10.085Z,39.00
2023-10-18T02:52:36.868Z,44.20
2023-10-18T02:55:04.509Z,36.40
2023-10-18T02:57:33.705Z,41.80
2023-10-18T03:00:11.664Z,39.60
2023-10-18T03:02:40.125Z,39.20
2023-10-18T03:05:08.238Z,37.80
2023-10-18T03:07:36.331Z,43.40
2023-10-18T03:10:12.830Z,45.40
2023-10-18T03:12:40.206Z,46.80
2023-10-18T03:15:12.959Z,42.00
2023-10-18T03:17:39.793Z,42.60
2023-10-18T03:20:23.643Z,46.60
2023-10-18T03:22:51.583Z,38.60
2023-10-18T03:25:18.626Z,45.00
2023-10-18T03:27:58.973Z,47.60
2023-10-18T03:30:42.040Z,42.40
2023-10-18T03:33:09.344Z,50.40
2023-10-18T03:35:41.044Z,40.80
2023-10-18T03:38:23.078Z,46.00
2023-10-18T03:40:57.750Z,42.60
2023-10-18T03:43:28.144Z,43.60
2023-10-18T03:46:14.079Z,43.60
2023-10-18T03:48:45.993Z,46.00
2023-10-18T03:51:21.649Z,40.20
2023-10-18T03:53:54.748Z,39.20
2023-10-18T03:56:23.495Z,55.20
2023-10-18T03:58:54.669Z,40.00
2023-10-18T04:01:23.203Z,40.00
2023-10-18T04:03:53.985Z,46.40
2023-10-18T04:06:24.844Z,53.00
2023-10-18T04:08:51.645Z,42.00
2023-10-18T04:11:25.804Z,41.60
2023-10-18T04:13:52.663Z,40.40
2023-10-18T04:16:20.132Z,34.80
2023-10-18T04:18:47.157Z,43.80
2023-10-18T04:21:16.544Z,40.20
2023-10-18T04:23:47.671Z,40.00
2023-10-18T04:26:19.809Z,58.60
2023-10-18T04:28:47.087Z,42.20
2023-10-18T04:31:16.120Z,44.80
2023-10-18T04:33:44.064Z,40.00
2023-10-18T04:36:14.053Z,40.00
2023-10-18T04:38:44.981Z,35.60
2023-10-18T04:41:25.693Z,38.20
2023-10-18T04:43:58.131Z,41.40
2023-10-18T04:46:28.553Z,41.20
2023-10-18T04:49:16.152Z,40.80
2023-10-18T04:52:03.755Z,42.80
2023-10-18T04:54:43.246Z,38.20
2023-10-18T04:57:13.579Z,38.60
2023-10-18T04:59:46.762Z,39.00
2023-10-18T05:02:27.007Z,44.80
2023-10-18T05:04:53.807Z,48.20
2023-10-18T05:07:21.235Z,48.40
2023-10-18T05:09:56.736Z,38.60
2023-10-18T05:12:46.799Z,40.40
2023-10-18T05:15:18.867Z,36.80
2023-10-18T05:17:46.345Z,39.60
2023-10-18T05:20:39.640Z,44.00
2023-10-18T05:23:07.050Z,45.20
2023-10-18T05:25:37.437Z,42.00
2023-10-18T05:28:11.488Z,41.60
2023-10-18T05:30:58.013Z,43.00
2023-10-18T05:34:00.215Z,44.80
2023-10-18T05:36:47.950Z,54.20
2023-10-18T05:59:50.872Z,44.80
2023-10-18T06:02:27.487Z,45.40
2023-10-18T06:04:59.463Z,53.80
2023-10-18T06:07:28.468Z,55.80
2023-10-18T06:10:16.159Z,49.60
2023-10-18T06:12:48.804Z,54.40
2023-10-18T06:15:18.218Z,43.00
2023-10-18T06:17:48.346Z,63.00
2023-10-18T06:20:48.327Z,57.80
2023-10-18T06:23:53.864Z,45.00
2023-10-18T06:26:30.522Z,47.40
2023-10-18T06:29:03.905Z,44.40
2023-10-18T06:31:31.824Z,48.20
2023-10-18T06:34:05.263Z,48.60
2023-10-18T06:36:35.406Z,43.00
2023-10-18T06:39:02.325Z,42.80
2023-10-18T06:41:32.411Z,46.80
2023-10-18T06:44:02.067Z,52.40
2023-10-18T06:46:30.120Z,43.20
2023-10-18T06:51:34.940Z,39.80
2023-10-18T06:54:04.731Z,47.00
2023-10-18T06:56:40.459Z,46.00
2023-10-18T06:59:08.621Z,46.80
2023-10-18T07:01:42.959Z,43.80
2023-10-18T07:04:20.037Z,46.60
2023-10-18T07:06:47.580Z,60.20
2023-10-18T07:09:26.251Z,47.20
2023-10-18T07:11:54.424Z,47.60
2023-10-18T07:14:25.947Z,49.40
2023-10-18T07:16:56.321Z,53.60
2023-10-18T07:19:28.400Z,61.80
2023-10-18T07:21:56.406Z,44.20
2023-10-18T07:24:26.190Z,45.40
2023-10-18T07:26:54.544Z,49.80
2023-10-18T07:29:22.478Z,40.00
2023-10-18T07:31:49.378Z,50.00
2023-10-18T07:34:19.367Z,49.40
2023-10-18T07:36:47.312Z,49.80
2023-10-18T07:39:17.985Z,46.00
2023-10-18T07:41:45.379Z,48.80
2023-10-18T07:44:12.282Z,57.60
2023-10-18T07:46:42.904Z,51.40
2023-10-18T07:49:15.825Z,45.40
2023-10-18T07:51:49.755Z,45.40
2023-10-18T07:54:19.215Z,50.40
2023-10-18T07:56:55.833Z,47.60
2023-10-18T07:59:31.901Z,50.40
2023-10-18T08:02:31.063Z,53.20
2023-10-18T08:05:02.042Z,47.40
2023-10-18T08:07:34.154Z,48.40
2023-10-18T08:10:08.051Z,50.80
2023-10-18T08:12:35.261Z,48.00
2023-10-18T08:15:05.340Z,48.40
2023-10-18T08:17:44.892Z,52.80
2023-10-18T08:20:45.876Z,48.00
2023-10-18T08:23:47.798Z,39.20
2023-10-18T08:26:14.497Z,52.80
2023-10-18T08:28:43.310Z,53.60
2023-10-18T08:31:36.778Z,48.00
2023-10-18T08:34:08.071Z,51.80
2023-10-18T08:36:35.079Z,50.60
2023-10-18T08:39:03.531Z,58.00
2023-10-18T08:41:35.352Z,54.00
2023-10-18T08:44:20.571Z,53.20
2023-10-18T08:47:08.781Z,52.40
2023-10-18T08:49:46.042Z,51.40
2023-10-18T08:52:13.252Z,49.40
2023-10-18T08:54:43.939Z,58.40
2023-10-18T08:57:12.279Z,46.40
2023-10-18T08:59:47.524Z,57.00
2023-10-18T09:02:23.130Z,58.60
2023-10-18T09:05:00.634Z,54.60
2023-10-18T09:07:46.289Z,59.40
2023-10-18T09:10:34.993Z,59.60
2023-10-18T09:13:30.266Z,53.60
2023-10-18T09:16:03.844Z,57.20
2023-10-18T09:18:35.701Z,57.00
2023-10-18T09:21:34.902Z,60.40
2023-10-18T09:24:01.639Z,52.60
2023-10-18T09:26:37.183Z,46.80
2023-10-18T09:29:04.213Z,54.20
2023-10-18T09:31:32.200Z,50.20
2023-10-18T09:34:09.252Z,53.60
2023-10-18T09:36:47.909Z,44.00
2023-10-18T09:39:16.103Z,53.00
2023-10-18T09:41:42.870Z,59.80
2023-10-18T09:44:10.484Z,57.40
2023-10-18T09:46:39.097Z,52.80
2023-10-18T09:49:11.033Z,61.80
2023-10-18T09:51:45.941Z,63.80
2023-10-18T09:54:14.368Z,56.00
2023-10-18T09:56:41.905Z,72.00
2023-10-18T09:59:17.807Z,52.80
2023-10-18T10:02:07.795Z,48.80
2023-10-18T10:04:37.129Z,54.60
2023-10-18T10:07:23.519Z,52.80
2023-10-18T10:09:51.989Z,57.20
2023-10-18T10:12:19.528Z,57.60
2023-10-18T10:14:47.420Z,64.00
2023-10-18T10:17:19.229Z,55.20
2023-10-18T10:19:51.636Z,53.20
2023-10-18T10:22:26.274Z,55.40
2023-10-18T10:25:06.467Z,49.40
2023-10-18T10:27:59.248Z,57.40
2023-10-18T10:30:36.294Z,54.60
2023-10-18T10:33:13.517Z,56.40
2023-10-18T10:35:48.091Z,56.80
2023-10-18T10:38:16.559Z,58.00
2023-10-18T10:40:49.932Z,58.80
2023-10-18T10:43:20.781Z,63.60
2023-10-18T10:46:12.827Z,58.40
2023-10-18T10:48:43.734Z,57.40
2023-10-18T10:51:34.646Z,56.60
2023-10-18T10:54:02.765Z,51.20
2023-10-18T10:56:52.682Z,51.40
2023-10-18T10:59:22.969Z,56.20
2023-10-18T11:30:24.236Z,42.40
2023-10-18T11:32:55.613Z,49.60
2023-10-18T11:35:47.063Z,71.40
2023-10-18T11:38:14.921Z,48.80
2023-10-18T11:40:45.673Z,51.60
2023-10-18T11:43:13.126Z,56.20
2023-10-18T11:45:41.443Z,46.60
2023-10-18T11:48:15.720Z,69.00
2023-10-18T11:50:52.358Z,55.40
2023-10-18T11:53:25.947Z,58.20
2023-10-18T11:56:03.206Z,66.40
2023-10-18T11:58:33.511Z,54.20
2023-10-18T12:01:18.187Z,53.80
2023-10-18T12:03:45.622Z,48.00
2023-10-18T12:06:15.644Z,52.00
2023-10-18T12:08:49.090Z,60.00
2023-10-18T12:11:16.069Z,53.40
2023-10-18T12:13:43.700Z,53.60
2023-10-18T12:16:10.676Z,54.60
2023-10-18T12:18:37.543Z,56.80
2023-10-18T12:21:06.899Z,48.60
2023-10-18T12:23:37.101Z,53.20
2023-10-18T12:26:07.766Z,56.80
2023-10-18T12:28:39.960Z,57.80
2023-10-18T12:31:18.273Z,52.00
2023-10-18T12:33:51.012Z,59.20
2023-10-18T12:36:24.316Z,49.40
2023-10-18T12:38:51.550Z,52.20
2023-10-18T12:41:28.931Z,83.20
2023-10-18T12:43:55.916Z,59.60
2023-10-18T12:46:23.917Z,48.40
2023-10-18T12:48:51.145Z,54.00
2023-10-18T12:51:19.084Z,57.60
2023-10-18T12:53:50.455Z,54.60
2023-10-18T12:56:49.805Z,50.60
2023-10-18T12:59:24.613Z,69.00
2023-10-18T13:01:51.802Z,55.00
2023-10-18T13:04:18.681Z,55.80
2023-10-18T13:06:47.206Z,55.60
2023-10-18T13:09:20.693Z,48.60
2023-10-18T13:12:13.077Z,60.20
2023-10-18T13:14:40.936Z,60.20
2023-10-18T13:17:12.398Z,51.20
2023-10-18T13:19:43.555Z,56.80
2023-10-18T13:22:18.778Z,48.00
2023-10-18T13:24:46.782Z,75.00
2023-10-18T13:27:16.999Z,48.40
2023-10-18T13:30:12.862Z,50.60
2023-10-18T13:32:41.772Z,53.40
2023-10-18T13:35:16.727Z,51.60
2023-10-18T13:37:44.849Z,46.00
2023-10-18T13:40:20.204Z,51.20
2023-10-18T13:42:47.802Z,51.40
2023-10-18T13:45:15.767Z,55.20
2023-10-18T13:47:42.962Z,50.40
2023-10-18T13:50:11.462Z,49.40
2023-10-18T13:52:42.614Z,57.60
2023-10-18T13:55:09.927Z,51.80
2023-10-18T13:57:36.745Z,58.40
2023-10-18T14:00:08.298Z,49.00
2023-10-18T14:02:38.984Z,53.80
2023-10-18T14:05:12.055Z,55.20
2023-10-18T14:07:38.842Z,52.00
2023-10-18T14:10:29.361Z,44.40
2023-10-18T14:12:56.785Z,49.80
2023-10-18T14:15:23.642Z,48.60
2023-10-18T14:17:56.936Z,53.80
2023-10-18T14:20:26.932Z,51.00
2023-10-18T14:22:57.792Z,54.00
2023-10-18T14:25:26.985Z,61.40
2023-10-18T14:27:54.393Z,52.80
2023-10-18T14:30:21.712Z,62.60
2023-10-18T14:32:48.645Z,54.00
2023-10-18T14:35:18.223Z,58.80
2023-10-18T14:37:47.153Z,63.20
2023-10-18T14:40:14.360Z,61.20
2023-10-18T14:42:41.147Z,56.40
2023-10-18T14:45:08.581Z,64.20
2023-10-18T14:47:39.604Z,54.60
2023-10-18T14:50:08.400Z,51.40
2023-10-18T14:52:35.257Z,60.00
2023-10-18T14:55:04.417Z,54.60
2023-10-18T14:57:31.320Z,61.40
2023-10-18T14:59:58.057Z,54.80
2023-10-18T15:02:25.013Z,54.00
2023-10-18T15:04:53.424Z,51.60
2023-10-18T15:07:20.208Z,52.00
2023-10-18T15:09:47.309Z,54.60
2023-10-18T15:12:17.300Z,54.80
2023-10-18T15:14:45.644Z,56.60
2023-10-18T15:17:12.621Z,55.20
2023-10-18T15:19:40.316Z,53.60
2023-10-18T15:22:07.104Z,48.80
2023-10-18T15:24:41.949Z,54.20
2023-10-18T15:27:14.416Z,63.80
2023-10-18T15:29:41.431Z,64.80
2023-10-18T15:32:09.334Z,56.60
2023-10-18T15:34:39.210Z,48.60
2023-10-18T15:37:07.796Z,49.20
2023-10-18T15:39:35.287Z,57.20
2023-10-18T15:42:02.214Z,59.80
2023-10-18T15:44:31.293Z,50.40
2023-10-18T15:47:01.538Z,41.60
2023-10-18T15:49:30.081Z,48.00
2023-10-18T15:51:58.556Z,55.20
2023-10-18T15:54:25.411Z,48.60
2023-10-18T15:56:52.813Z,53.60
2023-10-18T15:59:19.609Z,55.40
2023-10-18T16:01:58.304Z,51.20
2023-10-18T16:04:27.988Z,56.60
2023-10-18T16:06:57.255Z,53.20
2023-10-18T16:09:24.205Z,55.20
2023-10-18T16:11:50.972Z,54.60
2023-10-18T16:14:17.854Z,57.00
2023-10-18T16:16:44.845Z,56.40
2023-10-18T16:19:11.713Z,49.20
2023-10-18T16:21:39.271Z,58.60
2023-10-18T16:24:07.077Z,54.00
2023-10-18T16:26:34.505Z,65.00
2023-10-18T16:29:02.360Z,54.00
2023-10-18T16:31:31.456Z,58.20
2023-10-18T16:34:01.075Z,60.60
2023-10-18T16:36:28.221Z,49.00
2023-10-18T16:38:55.911Z,51.60
2023-10-18T16:41:22.932Z,51.20
2023-10-18T16:43:52.569Z,64.00
2023-10-18T16:46:22.252Z,53.20
2023-10-18T16:48:51.310Z,51.20
2023-10-18T16:51:18.950Z,60.00
2023-10-18T16:53:47.753Z,65.40
2023-10-18T16:56:15.985Z,53.80
2023-10-18T16:58:43.120Z,63.00
2023-10-18T17:01:13.978Z,53.60
2023-10-18T17:03:46.211Z,60.00
2023-10-18T17:06:14.971Z,55.40
2023-10-18T17:08:44.038Z,44.60
2023-10-18T17:11:16.550Z,55.60
2023-10-18T17:13:49.230Z,53.40
2023-10-18T17:16:18.828Z,54.20
2023-10-18T17:18:46.468Z,57.40
2023-10-18T17:23:45.318Z,63.40
2023-10-18T17:26:13.182Z,48.00
2023-10-18T17:28:40.462Z,58.80
2023-10-18T17:31:07.470Z,52.00
2023-10-18T17:33:34.459Z,54.60
2023-10-18T17:36:01.950Z,54.20
2023-10-18T17:38:28.849Z,50.40
2023-10-18T17:40:55.745Z,61.60
2023-10-18T17:43:23.638Z,52.80
2023-10-18T17:45:51.881Z,54.40
2023-10-18T17:48:19.775Z,54.80
2023-10-18T17:50:47.906Z,64.40
2023-10-18T17:53:15.428Z,58.80
2023-10-18T17:55:45.496Z,60.20
2023-10-18T17:58:18.757Z,61.00
2023-10-18T18:00:54.038Z,51.60
2023-10-18T18:03:24.221Z,53.40
2023-10-18T18:05:51.445Z,54.20
2023-10-18T18:08:27.041Z,49.40
2023-10-18T18:10:55.106Z,57.00
2023-10-18T18:13:23.583Z,49.40
2023-10-18T18:15:51.602Z,52.40
2023-10-18T18:18:25.650Z,39.60
2023-10-18T18:20:54.416Z,62.40
2023-10-18T18:23:21.317Z,61.20
2023-10-18T18:25:48.653Z,61.80
2023-10-18T18:28:16.012Z,54.40
2023-10-18T18:30:45.504Z,56.60
2023-10-18T18:33:13.586Z,55.20
2023-10-18T18:35:41.555Z,52.20
2023-10-18T18:38:09.256Z,51.00
2023-10-18T18:40:39.289Z,54.60
2023-10-18T18:43:06.094Z,57.80
2023-10-18T18:45:32.855Z,58.80
2023-10-18T18:47:59.908Z,53.40
2023-10-18T18:50:26.955Z,51.20
2023-10-18T18:52:53.899Z,54.40
2023-10-18T18:55:22.198Z,57.20
2023-10-18T18:57:51.638Z,57.80
2023-10-18T19:00:21.577Z,54.20
2023-10-18T19:02:50.359Z,53.20
2023-10-18T19:05:17.451Z,56.00
2023-10-18T19:07:44.748Z,49.80
2023-10-18T19:10:16.168Z,56.40
2023-10-18T19:12:44.103Z,51.80
2023-10-18T19:15:12.086Z,49.00
2023-10-18T19:17:42.699Z,57.40
2023-10-18T19:20:13.110Z,50.80
2023-10-18T19:22:40.677Z,54.40
2023-10-18T19:25:08.050Z,57.40
2023-10-18T19:27:36.435Z,56.80
2023-10-18T19:30:13.116Z,54.20
2023-10-18T19:32:40.843Z,58.40
2023-10-18T19:35:10.719Z,56.20
2023-10-18T19:37:38.903Z,53.80
2023-10-18T19:40:08.385Z,60.80
2023-10-18T19:42:35.720Z,51.40
2023-10-18T19:45:03.975Z,55.40
2023-10-18T19:47:31.869Z,54.20
2023-10-18T19:50:00.013Z,56.60
2023-10-18T19:52:28.539Z,49.00
2023-10-18T19:54:55.608Z,57.00
2023-10-18T19:57:22.711Z,51.60
2023-10-18T19:59:52.565Z,77.60
2023-10-18T20:02:20.363Z,61.80
2023-10-18T20:04:47.997Z,75.20
2023-10-18T20:07:17.025Z,60.20
2023-10-18T20:09:44.701Z,63.80
2023-10-18T20:12:12.041Z,64.00
2023-10-18T20:14:39.271Z,47.20
2023-10-18T20:17:07.082Z,56.40
2023-10-18T20:19:34.334Z,58.20
2023-10-18T20:22:01.545Z,59.40
2023-10-18T20:24:28.328Z,48.00
2023-10-18T20:26:55.175Z,66.40
2023-10-18T20:29:22.514Z,66.80
2023-10-18T20:31:49.672Z,52.00
2023-10-18T20:34:16.819Z,59.20
2023-10-18T20:36:44.483Z,63.40
2023-10-18T20:39:11.291Z,52.40
2023-10-18T20:41:39.881Z,57.80
2023-10-18T20:44:26.204Z,54.40
2023-10-18T20:46:53.991Z,58.40
2023-10-18T20:49:24.345Z,58.20
2023-10-18T20:51:53.177Z,63.80
2023-10-18T20:54:21.585Z,55.00
2023-10-18T20:56:55.027Z,55.80
2023-10-18T20:59:30.370Z,59.00
2023-10-18T21:02:04.154Z,54.60
2023-10-18T21:04:34.670Z,58.80
2023-10-18T21:07:01.643Z,57.40
2023-10-18T21:09:28.520Z,55.00
2023-10-18T21:11:55.967Z,52.80
2023-10-18T21:14:24.761Z,64.00
2023-10-18T21:16:53.151Z,57.80
2023-10-18T21:19:20.448Z,60.80
2023-10-18T21:21:49.059Z,54.40
2023-10-18T21:24:16.493Z,55.80
2023-10-18T21:26:43.306Z,61.80
2023-10-18T21:29:10.401Z,53.00
2023-10-18T21:31:38.717Z,59.20
2023-10-18T21:34:05.698Z,56.20
2023-10-18T21:36:33.488Z,55.20
2023-10-18T21:39:00.394Z,64.60
2023-10-18T21:41:27.305Z,52.00
2023-10-18T21:43:54.316Z,61.20
2023-10-18T21:46:21.225Z,62.60
2023-10-18T21:48:48.377Z,60.40
2023-10-18T21:51:16.641Z,51.00
2023-10-18T21:53:44.521Z,62.40
2023-10-18T21:56:15.620Z,57.60
2023-10-18T21:58:48.078Z,66.80
2023-10-18T22:01:34.501Z,58.80
2023-10-18T22:04:05.194Z,55.20
2023-10-18T22:06:35.398Z,66.80
2023-10-18T22:09:24.722Z,55.60
2023-10-18T22:11:52.927Z,56.80
2023-10-18T22:14:20.135Z,64.40
2023-10-18T22:16:55.373Z,61.40
2023-10-18T22:19:32.937Z,60.00
2023-10-18T22:22:13.454Z,62.40
2023-10-18T22:24:40.700Z,64.20
2023-10-18T22:27:14.661Z,63.00
2023-10-18T22:29:42.580Z,51.20
2023-10-18T22:34:43.464Z,67.60
2023-10-18T22:37:13.923Z,52.00
2023-10-18T22:39:45.490Z,54.40
2023-10-18T22:42:23.248Z,65.60
2023-10-18T22:45:09.545Z,67.60
2023-10-18T22:47:52.475Z,68.80
2023-10-18T22:50:39.284Z,67.40
2023-10-18T22:53:41.772Z,63.60
2023-10-18T22:56:11.941Z,58.80
2023-10-18T22:58:38.822Z,55.00
2023-10-18T23:01:10.498Z,61.60
2023-10-18T23:03:37.624Z,62.00
2023-10-18T23:06:11.863Z,56.60
2023-10-18T23:08:38.902Z,66.20
2023-10-18T23:11:28.861Z,57.40
2023-10-18T23:13:56.689Z,63.40
2023-10-18T23:16:55.266Z,63.20
2023-10-18T23:19:49.278Z,63.20
2023-10-18T23:22:35.983Z,63.40
2023-10-18T23:25:22.755Z,68.00
2023-10-18T23:28:08.064Z,62.20
2023-10-18T23:30:40.913Z,61.40
2023-10-18T23:33:46.090Z,65.20
2023-10-18T23:36:15.902Z,59.60
2023-10-18T23:38:44.846Z,57.20
2023-10-18T23:41:21.836Z,64.60
2023-10-18T23:43:50.946Z,70.00
2023-10-18T23:46:56.615Z,65.80
2023-10-18T23:49:47.517Z,59.20
2023-10-18T23:57:55.369Z,55.40
